Falmouth, Jamaica
Current Conditions -  °F | °C
As of 7:00 PM on Tuesday 21 Oct 2014 (Local Time) from MKJS Reporting Station
Broken Clouds Broken Clouds  
Wind Chill: 77°   Ceiling: 3200
Heat Index: 78°   Visibility: 6mi
Dew Point: 77°   Wind: 3mph
Humidity: 100%   Direction: 220°SW
Pressure: 29.88"   Gusts: NA
Location:  18.49°N, 77.66°W
Report Text: MKJS 220000Z 22003KT 9999 SCT020CB BKN032 25/25 Q1012
Loading
Personal Weather Stations






























Interactive Weather Map
Tropical Storm Tracking
New forecast layout! Learn more

10-Day Weather Forecast

Advertisements
Track Severe Weather on mobile